createdAt,value
2019-05-25T00:02:12.234Z,7.90
2019-05-25T00:04:40.199Z,7.97
2019-05-25T00:07:08.116Z,7.20
2019-05-25T00:09:35.982Z,7.93
2019-05-25T00:12:04.161Z,7.67
2019-05-25T00:14:32.089Z,7.23
2019-05-25T00:16:59.985Z,7.30
2019-05-25T00:19:27.918Z,7.00
2019-05-25T00:21:55.868Z,8.37
2019-05-25T00:24:25.056Z,7.67
2019-05-25T00:26:52.967Z,7.50
2019-05-25T00:29:21.573Z,7.57
2019-05-25T00:31:49.578Z,7.90
2019-05-25T00:34:17.752Z,7.83
2019-05-25T00:36:45.833Z,8.10
2019-05-25T00:39:13.694Z,8.10
2019-05-25T00:41:41.865Z,8.30
2019-05-25T00:44:09.848Z,9.40
2019-05-25T00:46:37.829Z,8.57
2019-05-25T00:49:05.732Z,8.60
2019-05-25T00:51:33.661Z,9.50
2019-05-25T00:54:01.630Z,8.77
2019-05-25T00:56:29.524Z,9.10
2019-05-25T00:58:57.434Z,10.40
2019-05-25T01:01:25.647Z,10.20
2019-05-25T01:03:53.586Z,9.70
2019-05-25T01:06:21.563Z,10.33
2019-05-25T01:08:49.474Z,10.20
2019-05-25T01:11:17.386Z,9.60
2019-05-25T01:13:45.341Z,9.63
2019-05-25T01:16:13.275Z,9.30
2019-05-25T01:18:41.299Z,9.47
2019-05-25T01:21:09.251Z,9.27
2019-05-25T01:23:37.209Z,10.57
2019-05-25T01:26:05.295Z,10.10
2019-05-25T01:28:33.239Z,9.70
2019-05-25T01:31:01.414Z,10.93
2019-05-25T01:33:29.415Z,10.30
2019-05-25T01:35:57.377Z,9.00
2019-05-25T01:38:25.298Z,9.10
2019-05-25T01:40:53.249Z,8.90
2019-05-25T01:43:21.113Z,8.90
2019-05-25T01:45:49.063Z,8.63
2019-05-25T01:48:17.004Z,9.57
2019-05-25T01:50:45.071Z,9.50
2019-05-25T01:53:12.949Z,8.93
2019-05-25T01:55:40.840Z,9.43
2019-05-25T01:58:08.841Z,9.27
2019-05-25T02:00:36.766Z,9.30
2019-05-25T02:03:04.651Z,8.73
2019-05-25T02:05:32.648Z,9.50
2019-05-25T02:08:00.629Z,9.60
2019-05-25T02:10:28.878Z,8.83
2019-05-25T02:12:56.760Z,9.57
2019-05-25T02:15:24.670Z,8.83
2019-05-25T02:17:52.706Z,9.43
2019-05-25T02:20:20.994Z,9.23
2019-05-25T02:22:49.146Z,9.20
2019-05-25T02:25:18.761Z,9.50
2019-05-25T02:27:47.206Z,8.70
2019-05-25T02:30:15.404Z,9.20
2019-05-25T02:32:43.384Z,9.60
2019-05-25T02:35:14.465Z,9.30
2019-05-25T02:37:42.409Z,8.90
2019-05-25T02:40:10.796Z,10.30
2019-05-25T02:42:38.794Z,8.87
2019-05-25T02:45:07.264Z,9.67
2019-05-25T02:47:35.308Z,9.30
2019-05-25T02:50:03.404Z,9.37
2019-05-25T02:52:31.306Z,9.17
2019-05-25T02:54:59.229Z,8.80
2019-05-25T02:57:27.142Z,9.20
2019-05-25T02:59:55.151Z,8.43
2019-05-25T03:02:23.076Z,8.60
2019-05-25T03:04:51.055Z,9.20
2019-05-25T03:07:19.877Z,9.10
2019-05-25T03:09:48.199Z,8.67
2019-05-25T03:12:16.472Z,8.87
2019-05-25T03:14:44.624Z,8.80
2019-05-25T03:17:12.697Z,8.27
2019-05-25T03:19:40.853Z,9.20
2019-05-25T03:22:08.772Z,8.70
2019-05-25T03:24:36.961Z,8.87
2019-05-25T03:27:05.120Z,9.23
2019-05-25T03:29:33.508Z,8.03
2019-05-25T03:32:01.704Z,8.23
2019-05-25T03:34:29.705Z,8.73
2019-05-25T03:36:57.713Z,8.70
2019-05-25T03:39:25.633Z,8.30
2019-05-25T03:41:53.586Z,9.10
2019-05-25T03:44:21.650Z,9.20
2019-05-25T03:46:49.742Z,9.00
2019-05-25T03:49:18.055Z,8.90
2019-05-25T03:51:46.127Z,9.37
2019-05-25T03:54:14.162Z,9.70
2019-05-25T03:56:42.248Z,8.60
2019-05-25T03:59:10.159Z,8.50
2019-05-25T04:01:38.048Z,8.40
2019-05-25T04:04:05.974Z,7.90
2019-05-25T04:06:33.971Z,8.80
2019-05-25T04:09:01.837Z,8.20
2019-05-25T04:11:29.789Z,8.20
2019-05-25T04:13:57.701Z,9.03
2019-05-25T04:16:25.560Z,8.60
2019-05-25T04:18:53.602Z,7.97
2019-05-25T04:21:21.588Z,8.97
2019-05-25T04:23:49.672Z,10.00
2019-05-25T04:26:22.638Z,8.80
2019-05-25T04:28:47.205Z,8.90
2019-05-25T04:31:15.095Z,8.60
2019-05-25T04:33:42.986Z,8.83
2019-05-25T04:36:10.918Z,9.00
2019-05-25T04:38:38.851Z,9.23
2019-05-25T04:41:06.830Z,8.70
2019-05-25T04:43:34.714Z,8.50
2019-05-25T04:46:02.683Z,9.60
2019-05-25T04:48:30.652Z,9.63
2019-05-25T04:50:58.648Z,9.20
2019-05-25T04:53:26.571Z,8.73
2019-05-25T04:55:54.527Z,8.70
2019-05-25T04:58:22.510Z,9.40
2019-05-25T05:00:50.437Z,8.17
2019-05-25T05:03:18.354Z,8.10
2019-05-25T05:05:46.311Z,9.43
2019-05-25T05:08:14.187Z,8.93
2019-05-25T05:10:42.348Z,8.80
2019-05-25T05:13:10.301Z,9.10
2019-05-25T05:15:38.345Z,9.20
2019-05-25T05:18:06.742Z,9.20
2019-05-25T05:20:34.732Z,8.93
2019-05-25T05:23:02.659Z,8.50
2019-05-25T05:25:30.532Z,9.50
2019-05-25T05:27:58.457Z,8.73
2019-05-25T05:30:33.017Z,8.47
2019-05-25T05:33:00.934Z,8.50
2019-05-25T05:35:29.435Z,9.90
2019-05-25T05:37:58.881Z,8.47
2019-05-25T05:40:26.764Z,8.70
2019-05-25T05:42:54.636Z,8.70
2019-05-25T05:45:22.597Z,8.37
2019-05-25T05:47:50.889Z,8.70
2019-05-25T05:50:19.151Z,9.70
2019-05-25T05:52:48.436Z,8.37
2019-05-25T05:55:17.900Z,8.07
2019-05-25T05:57:45.775Z,9.93
2019-05-25T06:00:13.740Z,8.90
2019-05-25T06:02:41.594Z,9.77
2019-05-25T06:05:09.603Z,8.03
2019-05-25T06:07:37.630Z,9.07
2019-05-25T06:10:05.877Z,8.17
2019-05-25T06:12:33.824Z,7.37
2019-05-25T06:15:01.695Z,7.30
2019-05-25T06:17:29.668Z,8.50
2019-05-25T06:19:57.621Z,7.60
2019-05-25T06:22:25.552Z,8.90
2019-05-25T06:24:53.455Z,7.13
2019-05-25T06:27:27.386Z,7.27
2019-05-25T06:29:50.978Z,7.00
2019-05-25T06:32:18.988Z,8.60
2019-05-25T06:34:47.003Z,8.97
2019-05-25T06:37:14.911Z,8.47
2019-05-25T06:39:44.039Z,6.00
2019-05-25T06:42:11.879Z,7.80
2019-05-25T06:44:39.767Z,8.77
2019-05-25T06:47:07.685Z,6.30
2019-05-25T06:49:35.681Z,7.90
2019-05-25T06:52:03.565Z,8.13
2019-05-25T06:54:31.492Z,7.00
2019-05-25T06:56:59.355Z,7.63
2019-05-25T06:59:27.202Z,7.80
2019-05-25T07:01:55.164Z,9.73
2019-05-25T07:04:23.032Z,7.10
2019-05-25T07:06:50.938Z,8.77
2019-05-25T07:09:18.889Z,8.10
2019-05-25T07:11:46.829Z,8.97
2019-05-25T07:14:14.805Z,7.33
2019-05-25T07:16:42.737Z,9.17
2019-05-25T07:19:10.598Z,8.23
2019-05-25T07:21:38.632Z,9.17
2019-05-25T07:24:06.580Z,7.73
2019-05-25T07:26:34.498Z,9.00
2019-05-25T07:29:02.343Z,7.77
2019-05-25T07:31:30.303Z,8.17
2019-05-25T07:33:58.405Z,5.77
2019-05-25T07:36:26.537Z,8.60
2019-05-25T07:38:54.446Z,6.40
2019-05-25T07:41:22.348Z,7.30
2019-05-25T07:43:50.355Z,8.00
2019-05-25T07:46:18.313Z,8.00
2019-05-25T07:48:46.221Z,7.50
2019-05-25T07:51:14.282Z,5.60
2019-05-25T07:53:42.166Z,7.63
2019-05-25T07:56:10.198Z,6.60
2019-05-25T07:58:38.134Z,6.90
2019-05-25T08:01:06.035Z,6.20
2019-05-25T08:03:34.049Z,7.83
2019-05-25T08:06:02.024Z,7.47
2019-05-25T08:08:30.000Z,5.93
2019-05-25T08:10:57.867Z,6.97
2019-05-25T08:13:25.784Z,6.33
2019-05-25T08:15:53.734Z,6.60
2019-05-25T08:18:21.660Z,7.97
2019-05-25T08:20:49.580Z,7.97
2019-05-25T08:23:17.476Z,7.33
2019-05-25T08:25:45.367Z,12.10
2019-05-25T08:28:13.287Z,8.07
2019-05-25T08:30:41.305Z,7.00
2019-05-25T08:33:09.674Z,7.27
2019-05-25T08:35:37.683Z,6.50
2019-05-25T08:38:05.597Z,6.17
2019-05-25T08:40:33.677Z,6.40
2019-05-25T08:43:01.562Z,6.07
2019-05-25T08:45:29.511Z,6.40
2019-05-25T08:47:57.637Z,6.40
2019-05-25T08:50:37.858Z,7.50
2019-05-25T08:52:55.256Z,7.03
2019-05-25T08:55:23.206Z,6.30
2019-05-25T08:57:51.055Z,7.23
2019-05-25T09:00:19.091Z,5.17
2019-05-25T09:02:47.200Z,7.40
2019-05-25T09:05:15.314Z,5.87
2019-05-25T09:07:43.215Z,6.10
2019-05-25T09:10:11.507Z,5.00
2019-05-25T09:12:39.461Z,7.93
2019-05-25T09:15:07.588Z,7.60
2019-05-25T09:17:35.488Z,8.20
2019-05-25T09:20:03.497Z,7.37
2019-05-25T09:22:31.395Z,7.53
2019-05-25T09:24:59.338Z,6.83
2019-05-25T09:27:27.290Z,4.80
2019-05-25T09:29:55.263Z,6.50
2019-05-25T09:32:23.221Z,8.10
2019-05-25T09:34:51.248Z,5.33
2019-05-25T09:37:19.173Z,8.43
2019-05-25T09:39:47.069Z,6.10
2019-05-25T09:42:15.047Z,6.67
2019-05-25T09:44:43.004Z,5.37
2019-05-25T09:47:10.975Z,6.90
2019-05-25T09:49:38.955Z,6.90
2019-05-25T09:52:07.273Z,7.10
2019-05-25T09:54:35.197Z,5.10
2019-05-25T09:57:03.371Z,7.30
2019-05-25T09:59:31.442Z,6.20
2019-05-25T10:01:59.517Z,5.47
2019-05-25T10:04:27.653Z,8.27
2019-05-25T10:06:55.646Z,5.70
2019-05-25T10:09:23.722Z,6.93
2019-05-25T10:11:51.768Z,5.27
2019-05-25T10:14:19.675Z,5.87
2019-05-25T10:16:47.707Z,7.33
2019-05-25T10:19:15.653Z,4.83
2019-05-25T10:21:43.698Z,6.50
2019-05-25T10:24:11.641Z,6.53
2019-05-25T10:26:39.644Z,3.90
2019-05-25T10:29:08.143Z,5.40
2019-05-25T10:31:36.211Z,6.53
2019-05-25T10:34:04.476Z,4.30
2019-05-25T10:36:32.651Z,4.27
2019-05-25T10:39:00.659Z,5.63
2019-05-25T10:41:28.612Z,5.00
2019-05-25T10:43:56.645Z,3.00
2019-05-25T10:46:24.569Z,4.37
2019-05-25T10:48:52.611Z,4.30
2019-05-25T10:51:20.655Z,6.00
2019-05-25T10:53:48.579Z,4.80
2019-05-25T10:56:16.575Z,5.20
2019-05-25T10:58:44.661Z,6.00
2019-05-25T11:01:12.572Z,6.03
2019-05-25T11:03:40.547Z,7.00
2019-05-25T11:06:08.910Z,6.70
2019-05-25T11:08:36.937Z,7.60
2019-05-25T11:11:05.148Z,7.03
2019-05-25T11:13:33.150Z,9.47
2019-05-25T11:16:01.089Z,8.23
2019-05-25T11:18:29.006Z,8.17
2019-05-25T11:20:56.931Z,8.00
2019-05-25T11:23:24.877Z,8.80
2019-05-25T11:25:52.779Z,9.37
2019-05-25T11:28:20.703Z,7.80
2019-05-25T11:30:48.781Z,8.40
2019-05-25T11:33:16.851Z,8.20
2019-05-25T11:35:44.898Z,7.67
2019-05-25T11:38:12.765Z,9.00
2019-05-25T11:40:40.809Z,7.57
2019-05-25T11:43:08.758Z,8.10
2019-05-25T11:45:36.721Z,7.23
2019-05-25T11:48:04.690Z,7.33
2019-05-25T11:50:32.636Z,7.07
2019-05-25T11:53:00.509Z,6.50
2019-05-25T11:55:28.451Z,7.30
2019-05-25T11:57:56.337Z,6.67
2019-05-25T12:00:25.923Z,6.43
2019-05-25T12:02:54.235Z,6.30
2019-05-25T12:05:22.219Z,7.53
2019-05-25T12:07:50.341Z,5.93
2019-05-25T12:10:18.439Z,8.77
2019-05-25T12:12:46.432Z,7.63
2019-05-25T12:15:14.508Z,6.40
2019-05-25T12:17:42.387Z,7.30
2019-05-25T12:20:10.776Z,7.77
2019-05-25T12:22:38.872Z,9.63
2019-05-25T12:25:06.994Z,7.37
2019-05-25T12:27:34.923Z,6.50
2019-05-25T12:30:02.933Z,6.50
2019-05-25T12:32:31.630Z,7.47
2019-05-25T12:34:59.514Z,8.10
2019-05-25T12:37:27.447Z,9.50
2019-05-25T12:39:55.373Z,8.33
2019-05-25T12:42:23.242Z,10.00
2019-05-25T12:44:51.175Z,9.80
2019-05-25T12:47:19.075Z,12.03
2019-05-25T12:49:51.251Z,10.80
2019-05-25T12:52:16.620Z,11.10
2019-05-25T12:54:44.472Z,12.57
2019-05-25T12:57:12.449Z,8.53
2019-05-25T12:59:40.515Z,11.80
2019-05-25T13:02:08.482Z,9.20
2019-05-25T13:04:36.379Z,9.83
2019-05-25T13:07:04.342Z,8.10
2019-05-25T13:09:33.196Z,7.13
2019-05-25T13:12:01.921Z,5.10
2019-05-25T13:14:29.821Z,6.37
2019-05-25T13:16:57.671Z,5.23
2019-05-25T13:19:25.581Z,5.70
2019-05-25T13:21:53.433Z,5.00
2019-05-25T13:24:24.039Z,5.43
2019-05-25T13:26:52.043Z,3.90
2019-05-25T13:29:19.961Z,4.00
2019-05-25T13:31:47.969Z,4.83
2019-05-25T13:34:15.900Z,6.10
2019-05-25T13:36:43.851Z,7.90
2019-05-25T13:39:11.743Z,7.37
2019-05-25T13:41:39.673Z,7.00
2019-05-25T13:44:07.698Z,5.30
2019-05-25T13:46:35.606Z,8.77
2019-05-25T13:49:03.517Z,8.30
2019-05-25T13:51:31.431Z,7.10
2019-05-25T13:53:59.323Z,6.90
2019-05-25T13:56:27.234Z,7.63
2019-05-25T13:58:55.117Z,5.63
2019-05-25T14:01:28.406Z,6.90
2019-05-25T14:03:55.733Z,6.20
2019-05-25T14:06:22.254Z,6.57
2019-05-25T14:08:50.261Z,5.83
2019-05-25T14:11:18.172Z,4.73
2019-05-25T14:13:46.137Z,4.57
2019-05-25T14:16:14.099Z,4.27
2019-05-25T14:18:41.930Z,4.60
2019-05-25T14:21:09.803Z,3.50
2019-05-25T14:23:37.704Z,3.40
2019-05-25T14:26:05.609Z,2.50
2019-05-25T14:28:33.604Z,2.03
2019-05-25T14:31:01.632Z,2.93
2019-05-25T14:33:29.504Z,3.90
2019-05-25T14:35:57.357Z,4.30
2019-05-25T14:38:25.227Z,4.03
2019-05-25T14:40:53.160Z,3.23
2019-05-25T14:43:21.167Z,3.50
2019-05-25T14:45:52.984Z,4.80
2019-05-25T14:48:18.742Z,5.33
2019-05-25T14:50:46.628Z,3.47
2019-05-25T14:53:14.693Z,4.30
2019-05-25T14:55:42.579Z,4.27
2019-05-25T14:58:12.831Z,3.37
2019-05-25T15:00:40.242Z,3.70
2019-05-25T15:03:08.115Z,3.50
2019-05-25T15:05:36.056Z,3.20
2019-05-25T15:08:03.954Z,3.10
2019-05-25T15:10:31.918Z,3.07
2019-05-25T15:12:59.919Z,1.90
2019-05-25T15:15:27.804Z,2.83
2019-05-25T15:17:55.810Z,2.90
2019-05-25T15:20:23.758Z,2.50
2019-05-25T15:22:51.631Z,2.50
2019-05-25T15:25:19.627Z,2.60
2019-05-25T15:27:47.602Z,2.40
2019-05-25T15:30:15.667Z,2.90
2019-05-25T15:32:43.554Z,2.70
2019-05-25T15:35:11.510Z,2.27
2019-05-25T15:37:39.547Z,1.80
2019-05-25T15:40:08.382Z,2.50
2019-05-25T15:42:36.440Z,2.30
2019-05-25T15:45:05.081Z,2.43
2019-05-25T15:47:33.058Z,2.60
2019-05-25T15:50:01.039Z,3.47
2019-05-25T15:52:28.998Z,2.57
2019-05-25T15:54:56.868Z,2.87
2019-05-25T15:57:24.795Z,2.70
2019-05-25T15:59:52.684Z,3.00
2019-05-25T16:02:35.744Z,3.47
2019-05-25T16:04:51.832Z,2.70
2019-05-25T16:08:01.748Z,2.90
2019-05-25T16:10:29.696Z,2.77
2019-05-25T16:12:57.666Z,2.47
2019-05-25T16:15:28.911Z,2.60
2019-05-25T16:17:57.117Z,3.07
2019-05-25T16:20:25.279Z,2.40
2019-05-25T16:22:53.351Z,2.73
2019-05-25T16:25:21.417Z,3.03
2019-05-25T16:27:49.396Z,2.33
2019-05-25T16:30:17.578Z,2.60
2019-05-25T16:33:10.761Z,3.00
2019-05-25T16:35:15.497Z,2.43
2019-05-25T16:37:43.988Z,3.20
2019-05-25T16:40:12.320Z,2.80
2019-05-25T16:42:40.448Z,2.70
2019-05-25T16:45:08.575Z,3.23
2019-05-25T16:47:36.745Z,3.20
2019-05-25T16:50:05.491Z,3.13
2019-05-25T16:52:33.421Z,3.17
2019-05-25T16:55:01.524Z,3.30
2019-05-25T16:57:29.762Z,2.97
2019-05-25T16:59:57.950Z,3.50
2019-05-25T17:02:26.092Z,3.30
2019-05-25T17:04:54.103Z,3.17
2019-05-25T17:07:22.578Z,3.43
2019-05-25T17:09:50.843Z,3.50
2019-05-25T17:12:20.782Z,2.77
2019-05-25T17:14:49.267Z,2.90
2019-05-25T17:17:17.581Z,2.77
2019-05-25T17:19:46.028Z,2.70
2019-05-25T17:22:14.356Z,3.20
2019-05-25T17:24:42.616Z,2.73
2019-05-25T17:27:11.252Z,3.50
2019-05-25T17:29:39.470Z,2.83
2019-05-25T17:32:07.809Z,3.60
2019-05-25T17:34:36.229Z,3.30
2019-05-25T17:37:06.835Z,3.40
2019-05-25T17:39:40.608Z,2.90
2019-05-25T17:42:08.757Z,3.43
2019-05-25T17:44:36.678Z,3.13
2019-05-25T17:47:04.778Z,3.37
2019-05-25T17:49:32.767Z,3.50
2019-05-25T17:52:00.661Z,3.43
2019-05-25T17:54:28.675Z,3.20
2019-05-25T17:56:56.565Z,3.47
2019-05-25T17:59:24.486Z,2.90
2019-05-25T18:01:52.490Z,2.97
2019-05-25T18:04:20.566Z,2.80
2019-05-25T18:06:48.694Z,3.40
2019-05-25T18:09:16.999Z,3.50
2019-05-25T18:15:22.448Z,3.30
2019-05-25T18:17:50.389Z,3.37
2019-05-25T18:20:18.497Z,3.40
2019-05-25T18:22:46.563Z,3.53
2019-05-25T18:25:14.542Z,3.10
2019-05-25T18:27:42.447Z,3.80
2019-05-25T18:30:10.922Z,3.00
2019-05-25T18:32:38.853Z,3.20
2019-05-25T18:35:07.095Z,3.43
2019-05-25T18:37:35.333Z,3.40
2019-05-25T18:40:06.642Z,4.37
2019-05-25T18:42:34.671Z,3.63
2019-05-25T18:45:03.123Z,3.83
2019-05-25T18:47:36.212Z,4.47
2019-05-25T18:50:05.148Z,3.97
2019-05-25T18:52:36.268Z,4.13
2019-05-25T18:55:05.214Z,4.80
2019-05-25T18:57:33.392Z,4.63
2019-05-25T19:00:01.464Z,3.57
2019-05-25T19:02:29.548Z,4.00
2019-05-25T19:04:59.851Z,3.70
2019-05-25T19:07:28.427Z,3.50
2019-05-25T19:09:56.390Z,4.30
2019-05-25T19:12:24.810Z,3.80
2019-05-25T19:14:53.043Z,3.70
2019-05-25T19:17:21.198Z,3.37
2019-05-25T19:19:49.706Z,4.60
2019-05-25T19:22:17.703Z,3.77
2019-05-25T19:24:45.956Z,3.80
2019-05-25T19:27:13.998Z,4.37
2019-05-25T19:29:41.989Z,3.70
2019-05-25T19:32:11.479Z,4.50
2019-05-25T19:34:39.771Z,4.60
2019-05-25T19:37:07.845Z,4.70
2019-05-25T19:39:35.800Z,4.77
2019-05-25T19:42:03.834Z,5.10
2019-05-25T19:44:31.881Z,4.90
2019-05-25T19:46:59.849Z,4.93
2019-05-25T19:49:27.902Z,5.60
2019-05-25T19:51:55.941Z,5.90
2019-05-25T19:54:24.090Z,4.97
2019-05-25T19:56:52.152Z,5.50
2019-05-25T19:59:20.546Z,5.40
2019-05-25T20:01:48.650Z,6.27
2019-05-25T20:04:16.611Z,6.73
2019-05-25T20:06:44.626Z,6.73
2019-05-25T20:09:12.646Z,7.43
2019-05-25T20:11:40.595Z,7.47
2019-05-25T20:14:08.535Z,7.50
2019-05-25T20:16:36.544Z,7.60
2019-05-25T20:19:04.630Z,8.30
2019-05-25T20:21:32.563Z,9.60
2019-05-25T20:24:00.543Z,9.30
2019-05-25T20:26:28.492Z,9.80
2019-05-25T20:28:56.522Z,8.80
2019-05-25T20:31:24.524Z,7.90
2019-05-25T20:33:52.451Z,6.27
2019-05-25T20:36:20.378Z,7.20
2019-05-25T20:38:48.843Z,5.80
2019-05-25T20:41:17.018Z,6.70
2019-05-25T20:43:45.402Z,5.87
2019-05-25T20:46:13.529Z,6.00
2019-05-25T20:48:41.430Z,6.17
2019-05-25T20:51:09.421Z,6.53
2019-05-25T20:53:37.570Z,6.93
2019-05-25T20:56:06.720Z,5.83
2019-05-25T20:58:34.752Z,6.77
2019-05-25T21:01:03.976Z,5.73
2019-05-25T21:03:32.263Z,5.43
2019-05-25T21:06:00.563Z,6.00
2019-05-25T21:08:28.572Z,5.67
2019-05-25T21:10:56.582Z,5.70
2019-05-25T21:13:24.914Z,5.57
2019-05-25T21:15:52.936Z,4.13
2019-05-25T21:18:20.914Z,4.30
2019-05-25T21:20:49.023Z,3.80
2019-05-25T21:23:16.967Z,4.47
2019-05-25T21:25:45.666Z,3.60
2019-05-25T21:28:13.645Z,3.53
2019-05-25T21:30:41.699Z,3.63
2019-05-25T21:33:09.732Z,4.00
2019-05-25T21:35:38.125Z,3.50
2019-05-25T21:38:06.043Z,3.20
2019-05-25T21:40:34.324Z,2.80
2019-05-25T21:43:02.396Z,3.23
2019-05-25T21:45:31.128Z,2.87
2019-05-25T21:47:59.135Z,3.20
2019-05-25T21:50:27.063Z,2.80
2019-05-25T21:52:55.083Z,2.70
2019-05-25T21:55:23.204Z,2.80
2019-05-25T21:57:51.172Z,3.30
2019-05-25T22:00:21.201Z,2.70
2019-05-25T22:02:49.172Z,3.07
2019-05-25T22:05:17.919Z,3.10
2019-05-25T22:07:45.925Z,3.17
2019-05-25T22:10:13.958Z,3.27
2019-05-25T22:12:42.029Z,3.00
2019-05-25T22:15:10.693Z,3.17
2019-05-25T22:17:39.049Z,2.50
2019-05-25T22:20:07.302Z,3.10
2019-05-25T22:22:35.254Z,2.67
2019-05-25T22:25:03.300Z,3.00
2019-05-25T22:27:31.280Z,2.80
2019-05-25T22:29:59.334Z,3.47
2019-05-25T22:32:27.183Z,2.60
2019-05-25T22:34:55.231Z,3.20
2019-05-25T22:37:23.142Z,2.70
2019-05-25T22:39:51.105Z,2.80
2019-05-25T22:42:19.327Z,2.57
2019-05-25T22:44:47.296Z,2.43
2019-05-25T22:47:15.274Z,2.80
2019-05-25T22:49:43.185Z,2.60
2019-05-25T22:52:11.018Z,2.77
2019-05-25T22:54:38.934Z,2.97
2019-05-25T22:57:06.859Z,3.13
2019-05-25T22:59:34.783Z,3.03
2019-05-25T23:02:02.681Z,3.27
2019-05-25T23:04:30.672Z,3.50
2019-05-25T23:06:58.771Z,3.27
2019-05-25T23:09:26.824Z,3.13
2019-05-25T23:11:54.754Z,3.03
2019-05-25T23:14:22.667Z,3.40
2019-05-25T23:16:50.568Z,3.90
2019-05-25T23:19:18.439Z,3.20
2019-05-25T23:21:46.374Z,4.10
2019-05-25T23:24:14.227Z,3.40
2019-05-25T23:26:42.172Z,4.00
2019-05-25T23:29:10.094Z,2.97
2019-05-25T23:31:37.990Z,4.40
2019-05-25T23:34:05.900Z,3.23
2019-05-25T23:36:33.806Z,4.10
2019-05-25T23:39:01.708Z,4.10
2019-05-25T23:41:29.705Z,4.60
2019-05-25T23:43:59.797Z,4.33
2019-05-25T23:46:27.202Z,4.00
2019-05-25T23:48:55.088Z,3.53
2019-05-25T23:51:22.959Z,3.33
2019-05-25T23:53:51.033Z,3.80
2019-05-25T23:56:18.973Z,3.97
2019-05-25T23:58:46.876Z,4.17
